sensor_id;sensor_type;location;lat;lon;timestamp;P1;durP1;ratioP1;P2;durP2;ratioP2
20928;SDS011;21895;47.072;15.132;2022-12-24T00:01:01;10.03;;;4.70;;
20928;SDS011;21895;47.072;15.132;2022-12-24T00:03:29;12.13;;;5.00;;
20928;SDS011;21895;47.072;15.132;2022-12-24T00:05:56;13.10;;;5.27;;
20928;SDS011;21895;47.072;15.132;2022-12-24T00:08:22;9.90;;;4.90;;
20928;SDS011;21895;47.072;15.132;2022-12-24T00:10:50;10.50;;;5.43;;
20928;SDS011;21895;47.072;15.132;2022-12-24T00:13:19;13.90;;;5.63;;
20928;SDS011;21895;47.072;15.132;2022-12-24T00:15:46;11.83;;;5.57;;
20928;SDS011;21895;47.072;15.132;2022-12-24T00:18:13;17.47;;;5.60;;
20928;SDS011;21895;47.072;15.132;2022-12-24T00:20:40;10.87;;;4.67;;
20928;SDS011;21895;47.072;15.132;2022-12-24T00:23:11;12.40;;;3.97;;
20928;SDS011;21895;47.072;15.132;2022-12-24T00:25:38;12.53;;;5.03;;
20928;SDS011;21895;47.072;15.132;2022-12-24T00:28:05;11.87;;;5.90;;
20928;SDS011;21895;47.072;15.132;2022-12-24T00:30:31;11.97;;;5.37;;
20928;SDS011;21895;47.072;15.132;2022-12-24T00:32:58;12.60;;;5.43;;
20928;SDS011;21895;47.072;15.132;2022-12-24T00:35:24;15.33;;;5.67;;
20928;SDS011;21895;47.072;15.132;2022-12-24T00:37:51;14.60;;;5.43;;
20928;SDS011;21895;47.072;15.132;2022-12-24T00:40:17;14.57;;;5.77;;
20928;SDS011;21895;47.072;15.132;2022-12-24T00:42:44;14.50;;;5.73;;
20928;SDS011;21895;47.072;15.132;2022-12-24T00:45:10;15.13;;;5.63;;
20928;SDS011;21895;47.072;15.132;2022-12-24T00:47:37;15.00;;;5.87;;
20928;SDS011;21895;47.072;15.132;2022-12-24T00:50:04;15.10;;;5.37;;
20928;SDS011;21895;47.072;15.132;2022-12-24T00:52:32;10.47;;;4.83;;
20928;SDS011;21895;47.072;15.132;2022-12-24T00:54:59;12.17;;;4.93;;
20928;SDS011;21895;47.072;15.132;2022-12-24T00:57:26;10.10;;;4.57;;
20928;SDS011;21895;47.072;15.132;2022-12-24T00:59:52;11.77;;;4.60;;
20928;SDS011;21895;47.072;15.132;2022-12-24T01:02:19;11.17;;;4.60;;
20928;SDS011;21895;47.072;15.132;2022-12-24T01:04:46;10.07;;;4.83;;
20928;SDS011;21895;47.072;15.132;2022-12-24T01:07:30;16.37;;;4.93;;
20928;SDS011;21895;47.072;15.132;2022-12-24T01:09:57;10.40;;;4.77;;
20928;SDS011;21895;47.072;15.132;2022-12-24T01:12:23;12.63;;;4.97;;
20928;SDS011;21895;47.072;15.132;2022-12-24T01:14:50;10.97;;;4.00;;
20928;SDS011;21895;47.072;15.132;2022-12-24T01:17:17;11.80;;;4.33;;
20928;SDS011;21895;47.072;15.132;2022-12-24T01:19:43;9.77;;;3.10;;
20928;SDS011;21895;47.072;15.132;2022-12-24T01:22:10;4.20;;;2.60;;
20928;SDS011;21895;47.072;15.132;2022-12-24T01:24:37;6.67;;;2.33;;
20928;SDS011;21895;47.072;15.132;2022-12-24T01:27:06;8.93;;;3.73;;
20928;SDS011;21895;47.072;15.132;2022-12-24T01:29:33;9.17;;;3.67;;
20928;SDS011;21895;47.072;15.132;2022-12-24T01:31:59;9.53;;;3.97;;
20928;SDS011;21895;47.072;15.132;2022-12-24T01:34:26;8.10;;;3.60;;
20928;SDS011;21895;47.072;15.132;2022-12-24T01:36:52;10.30;;;3.87;;
20928;SDS011;21895;47.072;15.132;2022-12-24T01:39:19;7.50;;;3.17;;
20928;SDS011;21895;47.072;15.132;2022-12-24T01:41:45;7.53;;;3.63;;
20928;SDS011;21895;47.072;15.132;2022-12-24T01:44:31;5.77;;;3.07;;
20928;SDS011;21895;47.072;15.132;2022-12-24T01:50:13;12.13;;;2.97;;
20928;SDS011;21895;47.072;15.132;2022-12-24T01:52:42;7.37;;;3.30;;
20928;SDS011;21895;47.072;15.132;2022-12-24T01:55:09;6.07;;;3.10;;
20928;SDS011;21895;47.072;15.132;2022-12-24T01:57:44;6.90;;;3.00;;
20928;SDS011;21895;47.072;15.132;2022-12-24T02:00:16;6.00;;;3.20;;
20928;SDS011;21895;47.072;15.132;2022-12-24T02:02:45;4.83;;;2.40;;
20928;SDS011;21895;47.072;15.132;2022-12-24T02:08:25;9.97;;;2.93;;
20928;SDS011;21895;47.072;15.132;2022-12-24T02:11:20;6.90;;;3.20;;
20928;SDS011;21895;47.072;15.132;2022-12-24T02:13:51;6.40;;;3.10;;
20928;SDS011;21895;47.072;15.132;2022-12-24T02:16:42;5.30;;;2.60;;
20928;SDS011;21895;47.072;15.132;2022-12-24T02:32:32;4.93;;;2.40;;
20928;SDS011;21895;47.072;15.132;2022-12-24T02:35:35;4.60;;;2.60;;
20928;SDS011;21895;47.072;15.132;2022-12-24T02:38:25;4.10;;;2.40;;
20928;SDS011;21895;47.072;15.132;2022-12-24T02:41:14;5.67;;;2.60;;
20928;SDS011;21895;47.072;15.132;2022-12-24T02:44:30;6.87;;;3.23;;
20928;SDS011;21895;47.072;15.132;2022-12-24T02:47:09;6.23;;;2.73;;
20928;SDS011;21895;47.072;15.132;2022-12-24T02:49:41;4.57;;;2.70;;
20928;SDS011;21895;47.072;15.132;2022-12-24T03:07:15;6.57;;;2.50;;
20928;SDS011;21895;47.072;15.132;2022-12-24T03:10:13;6.97;;;2.80;;
20928;SDS011;21895;47.072;15.132;2022-12-24T03:13:09;6.37;;;2.63;;
20928;SDS011;21895;47.072;15.132;2022-12-24T03:15:41;7.43;;;2.93;;
20928;SDS011;21895;47.072;15.132;2022-12-24T03:18:10;6.07;;;2.50;;
20928;SDS011;21895;47.072;15.132;2022-12-24T03:20:46;5.30;;;2.87;;
20928;SDS011;21895;47.072;15.132;2022-12-24T03:23:32;4.33;;;2.40;;
20928;SDS011;21895;47.072;15.132;2022-12-24T03:26:00;4.97;;;2.63;;
20928;SDS011;21895;47.072;15.132;2022-12-24T03:28:32;5.03;;;2.50;;
20928;SDS011;21895;47.072;15.132;2022-12-24T03:31:03;5.73;;;3.00;;
20928;SDS011;21895;47.072;15.132;2022-12-24T03:33:31;5.67;;;2.60;;
20928;SDS011;21895;47.072;15.132;2022-12-24T03:35:59;8.30;;;2.43;;
20928;SDS011;21895;47.072;15.132;2022-12-24T03:38:26;6.63;;;2.40;;
20928;SDS011;21895;47.072;15.132;2022-12-24T03:40:52;6.97;;;3.07;;
20928;SDS011;21895;47.072;15.132;2022-12-24T03:43:19;3.53;;;2.20;;
20928;SDS011;21895;47.072;15.132;2022-12-24T03:45:45;5.37;;;2.70;;
20928;SDS011;21895;47.072;15.132;2022-12-24T03:48:12;6.83;;;2.40;;
20928;SDS011;21895;47.072;15.132;2022-12-24T03:50:39;4.00;;;2.40;;
20928;SDS011;21895;47.072;15.132;2022-12-24T03:53:05;4.47;;;2.13;;
20928;SDS011;21895;47.072;15.132;2022-12-24T03:55:32;4.17;;;1.93;;
20928;SDS011;21895;47.072;15.132;2022-12-24T03:57:58;11.13;;;2.43;;
20928;SDS011;21895;47.072;15.132;2022-12-24T04:00:25;5.80;;;2.33;;
20928;SDS011;21895;47.072;15.132;2022-12-24T04:02:52;8.23;;;2.00;;
20928;SDS011;21895;47.072;15.132;2022-12-24T04:05:19;3.70;;;1.93;;
20928;SDS011;21895;47.072;15.132;2022-12-24T04:07:46;3.10;;;1.93;;
20928;SDS011;21895;47.072;15.132;2022-12-24T04:10:13;6.57;;;2.03;;
20928;SDS011;21895;47.072;15.132;2022-12-24T04:12:41;3.80;;;2.00;;
20928;SDS011;21895;47.072;15.132;2022-12-24T04:15:08;3.60;;;2.13;;
20928;SDS011;21895;47.072;15.132;2022-12-24T04:17:35;5.30;;;2.20;;
20928;SDS011;21895;47.072;15.132;2022-12-24T04:20:02;5.53;;;2.30;;
20928;SDS011;21895;47.072;15.132;2022-12-24T04:22:30;4.87;;;2.47;;
20928;SDS011;21895;47.072;15.132;2022-12-24T04:24:57;3.90;;;1.87;;
20928;SDS011;21895;47.072;15.132;2022-12-24T04:27:23;4.93;;;1.77;;
20928;SDS011;21895;47.072;15.132;2022-12-24T04:29:56;6.90;;;1.70;;
20928;SDS011;21895;47.072;15.132;2022-12-24T04:32:23;4.60;;;1.67;;
20928;SDS011;21895;47.072;15.132;2022-12-24T04:34:51;4.20;;;1.70;;
20928;SDS011;21895;47.072;15.132;2022-12-24T04:37:17;3.30;;;1.77;;
20928;SDS011;21895;47.072;15.132;2022-12-24T04:39:44;4.23;;;2.03;;
20928;SDS011;21895;47.072;15.132;2022-12-24T04:42:10;2.40;;;1.43;;
20928;SDS011;21895;47.072;15.132;2022-12-24T04:44:37;3.67;;;1.73;;
20928;SDS011;21895;47.072;15.132;2022-12-24T04:47:03;8.93;;;2.10;;
20928;SDS011;21895;47.072;15.132;2022-12-24T04:49:30;3.90;;;1.90;;
20928;SDS011;21895;47.072;15.132;2022-12-24T04:51:56;4.07;;;1.60;;
20928;SDS011;21895;47.072;15.132;2022-12-24T04:54:23;3.23;;;1.70;;
20928;SDS011;21895;47.072;15.132;2022-12-24T04:56:49;3.83;;;1.70;;
20928;SDS011;21895;47.072;15.132;2022-12-24T04:59:16;3.53;;;1.83;;
20928;SDS011;21895;47.072;15.132;2022-12-24T05:01:42;4.60;;;1.63;;
20928;SDS011;21895;47.072;15.132;2022-12-24T05:04:09;5.10;;;2.40;;
20928;SDS011;21895;47.072;15.132;2022-12-24T05:06:35;6.47;;;2.80;;
20928;SDS011;21895;47.072;15.132;2022-12-24T05:09:02;3.30;;;1.57;;
20928;SDS011;21895;47.072;15.132;2022-12-24T05:11:29;4.47;;;1.97;;
20928;SDS011;21895;47.072;15.132;2022-12-24T05:13:55;3.33;;;1.87;;
20928;SDS011;21895;47.072;15.132;2022-12-24T05:16:22;2.57;;;1.67;;
20928;SDS011;21895;47.072;15.132;2022-12-24T05:18:50;2.93;;;1.80;;
20928;SDS011;21895;47.072;15.132;2022-12-24T05:21:19;4.70;;;2.03;;
20928;SDS011;21895;47.072;15.132;2022-12-24T05:23:49;3.20;;;1.80;;
20928;SDS011;21895;47.072;15.132;2022-12-24T05:26:37;3.43;;;1.70;;
20928;SDS011;21895;47.072;15.132;2022-12-24T05:29:09;5.97;;;2.87;;
20928;SDS011;21895;47.072;15.132;2022-12-24T05:31:37;2.87;;;1.63;;
20928;SDS011;21895;47.072;15.132;2022-12-24T05:34:05;3.00;;;1.90;;
20928;SDS011;21895;47.072;15.132;2022-12-24T05:36:32;6.30;;;2.10;;
20928;SDS011;21895;47.072;15.132;2022-12-24T05:38:59;7.00;;;2.77;;
20928;SDS011;21895;47.072;15.132;2022-12-24T05:41:25;5.30;;;2.07;;
20928;SDS011;21895;47.072;15.132;2022-12-24T05:43:52;8.53;;;3.23;;
20928;SDS011;21895;47.072;15.132;2022-12-24T05:46:19;10.70;;;3.83;;
20928;SDS011;21895;47.072;15.132;2022-12-24T05:48:48;11.20;;;3.47;;
20928;SDS011;21895;47.072;15.132;2022-12-24T05:51:17;2.77;;;1.80;;
20928;SDS011;21895;47.072;15.132;2022-12-24T05:53:47;10.37;;;3.40;;
20928;SDS011;21895;47.072;15.132;2022-12-24T05:56:16;6.93;;;3.80;;
20928;SDS011;21895;47.072;15.132;2022-12-24T05:58:45;5.40;;;2.90;;
20928;SDS011;21895;47.072;15.132;2022-12-24T06:01:13;9.70;;;4.80;;
20928;SDS011;21895;47.072;15.132;2022-12-24T06:03:40;8.00;;;4.33;;
20928;SDS011;21895;47.072;15.132;2022-12-24T06:06:08;14.70;;;6.53;;
20928;SDS011;21895;47.072;15.132;2022-12-24T06:08:39;11.07;;;4.07;;
20928;SDS011;21895;47.072;15.132;2022-12-24T06:11:07;5.13;;;2.00;;
20928;SDS011;21895;47.072;15.132;2022-12-24T06:13:38;6.50;;;2.33;;
20928;SDS011;21895;47.072;15.132;2022-12-24T06:16:06;3.93;;;2.37;;
20928;SDS011;21895;47.072;15.132;2022-12-24T06:18:36;5.67;;;2.40;;
20928;SDS011;21895;47.072;15.132;2022-12-24T06:21:03;11.30;;;3.87;;
20928;SDS011;21895;47.072;15.132;2022-12-24T06:23:32;12.57;;;2.60;;
20928;SDS011;21895;47.072;15.132;2022-12-24T06:26:01;7.33;;;2.50;;
20928;SDS011;21895;47.072;15.132;2022-12-24T06:28:30;5.63;;;2.63;;
20928;SDS011;21895;47.072;15.132;2022-12-24T06:31:00;9.20;;;4.13;;
20928;SDS011;21895;47.072;15.132;2022-12-24T06:33:29;10.83;;;4.13;;
20928;SDS011;21895;47.072;15.132;2022-12-24T06:35:57;10.03;;;3.80;;
20928;SDS011;21895;47.072;15.132;2022-12-24T06:38:24;7.87;;;2.97;;
20928;SDS011;21895;47.072;15.132;2022-12-24T06:40:50;10.17;;;4.13;;
20928;SDS011;21895;47.072;15.132;2022-12-24T06:43:17;9.73;;;3.40;;
20928;SDS011;21895;47.072;15.132;2022-12-24T06:45:44;11.17;;;4.30;;
20928;SDS011;21895;47.072;15.132;2022-12-24T06:48:12;10.50;;;4.00;;
20928;SDS011;21895;47.072;15.132;2022-12-24T06:50:40;9.20;;;3.23;;
20928;SDS011;21895;47.072;15.132;2022-12-24T06:53:08;9.03;;;3.17;;
20928;SDS011;21895;47.072;15.132;2022-12-24T06:55:35;8.67;;;4.07;;
20928;SDS011;21895;47.072;15.132;2022-12-24T06:58:01;7.80;;;3.57;;
20928;SDS011;21895;47.072;15.132;2022-12-24T07:00:28;6.07;;;2.70;;
20928;SDS011;21895;47.072;15.132;2022-12-24T07:02:55;7.67;;;2.80;;
20928;SDS011;21895;47.072;15.132;2022-12-24T07:05:21;6.30;;;3.07;;
20928;SDS011;21895;47.072;15.132;2022-12-24T07:07:48;7.60;;;3.27;;
20928;SDS011;21895;47.072;15.132;2022-12-24T07:10:15;5.17;;;2.27;;
20928;SDS011;21895;47.072;15.132;2022-12-24T07:12:44;3.77;;;1.80;;
20928;SDS011;21895;47.072;15.132;2022-12-24T07:15:11;4.60;;;2.30;;
20928;SDS011;21895;47.072;15.132;2022-12-24T07:17:39;6.03;;;2.93;;
20928;SDS011;21895;47.072;15.132;2022-12-24T07:20:06;7.63;;;2.70;;
20928;SDS011;21895;47.072;15.132;2022-12-24T07:22:38;5.27;;;2.40;;
20928;SDS011;21895;47.072;15.132;2022-12-24T07:25:04;4.47;;;2.20;;
20928;SDS011;21895;47.072;15.132;2022-12-24T07:27:31;6.33;;;2.87;;
20928;SDS011;21895;47.072;15.132;2022-12-24T07:29:58;5.93;;;2.70;;
20928;SDS011;21895;47.072;15.132;2022-12-24T07:32:24;6.27;;;2.90;;
20928;SDS011;21895;47.072;15.132;2022-12-24T07:34:51;14.17;;;2.67;;
20928;SDS011;21895;47.072;15.132;2022-12-24T07:37:17;4.87;;;2.30;;
20928;SDS011;21895;47.072;15.132;2022-12-24T07:39:44;4.20;;;2.17;;
20928;SDS011;21895;47.072;15.132;2022-12-24T07:42:10;6.83;;;2.30;;
20928;SDS011;21895;47.072;15.132;2022-12-24T07:44:37;3.20;;;2.00;;
20928;SDS011;21895;47.072;15.132;2022-12-24T07:47:03;3.13;;;1.97;;
20928;SDS011;21895;47.072;15.132;2022-12-24T07:49:30;7.33;;;2.80;;
20928;SDS011;21895;47.072;15.132;2022-12-24T07:51:57;4.73;;;2.30;;
20928;SDS011;21895;47.072;15.132;2022-12-24T07:54:23;3.67;;;2.13;;
20928;SDS011;21895;47.072;15.132;2022-12-24T07:56:50;8.10;;;2.80;;
20928;SDS011;21895;47.072;15.132;2022-12-24T07:59:16;4.67;;;2.10;;
20928;SDS011;21895;47.072;15.132;2022-12-24T08:01:43;3.33;;;2.10;;
20928;SDS011;21895;47.072;15.132;2022-12-24T08:04:10;5.80;;;2.60;;
20928;SDS011;21895;47.072;15.132;2022-12-24T08:06:37;3.83;;;2.80;;
20928;SDS011;21895;47.072;15.132;2022-12-24T08:09:03;6.23;;;2.87;;
20928;SDS011;21895;47.072;15.132;2022-12-24T08:11:30;8.10;;;3.07;;
20928;SDS011;21895;47.072;15.132;2022-12-24T08:13:57;7.70;;;2.80;;
20928;SDS011;21895;47.072;15.132;2022-12-24T08:16:23;4.40;;;2.27;;
20928;SDS011;21895;47.072;15.132;2022-12-24T08:18:50;5.13;;;2.30;;
20928;SDS011;21895;47.072;15.132;2022-12-24T08:21:16;3.87;;;2.20;;
20928;SDS011;21895;47.072;15.132;2022-12-24T08:23:45;6.17;;;2.93;;
20928;SDS011;21895;47.072;15.132;2022-12-24T08:26:12;6.67;;;2.93;;
20928;SDS011;21895;47.072;15.132;2022-12-24T08:28:38;4.23;;;2.37;;
20928;SDS011;21895;47.072;15.132;2022-12-24T08:31:05;5.50;;;2.70;;
20928;SDS011;21895;47.072;15.132;2022-12-24T08:33:32;6.50;;;3.20;;
20928;SDS011;21895;47.072;15.132;2022-12-24T08:35:59;6.57;;;3.03;;
20928;SDS011;21895;47.072;15.132;2022-12-24T08:38:26;7.50;;;2.83;;
20928;SDS011;21895;47.072;15.132;2022-12-24T08:40:53;8.20;;;3.87;;
20928;SDS011;21895;47.072;15.132;2022-12-24T08:43:21;9.50;;;4.20;;
20928;SDS011;21895;47.072;15.132;2022-12-24T08:45:49;5.90;;;3.27;;
20928;SDS011;21895;47.072;15.132;2022-12-24T08:48:16;7.17;;;3.63;;
20928;SDS011;21895;47.072;15.132;2022-12-24T08:50:43;9.63;;;4.53;;
20928;SDS011;21895;47.072;15.132;2022-12-24T08:53:10;16.33;;;6.10;;
20928;SDS011;21895;47.072;15.132;2022-12-24T08:55:37;13.90;;;5.40;;
20928;SDS011;21895;47.072;15.132;2022-12-24T08:58:04;19.37;;;7.83;;
20928;SDS011;21895;47.072;15.132;2022-12-24T09:00:30;15.47;;;5.07;;
20928;SDS011;21895;47.072;15.132;2022-12-24T09:02:57;6.17;;;3.57;;
20928;SDS011;21895;47.072;15.132;2022-12-24T09:05:24;8.47;;;3.13;;
20928;SDS011;21895;47.072;15.132;2022-12-24T09:07:50;6.80;;;3.60;;
20928;SDS011;21895;47.072;15.132;2022-12-24T09:10:17;7.83;;;3.87;;
20928;SDS011;21895;47.072;15.132;2022-12-24T09:12:44;15.10;;;4.40;;
20928;SDS011;21895;47.072;15.132;2022-12-24T09:15:10;18.70;;;5.87;;
20928;SDS011;21895;47.072;15.132;2022-12-24T09:17:38;11.50;;;4.67;;
20928;SDS011;21895;47.072;15.132;2022-12-24T09:20:06;9.60;;;4.73;;
20928;SDS011;21895;47.072;15.132;2022-12-24T09:22:34;7.37;;;4.17;;
20928;SDS011;21895;47.072;15.132;2022-12-24T09:25:03;7.90;;;4.10;;
20928;SDS011;21895;47.072;15.132;2022-12-24T09:27:35;16.00;;;6.23;;
20928;SDS011;21895;47.072;15.132;2022-12-24T09:30:02;9.67;;;4.60;;
20928;SDS011;21895;47.072;15.132;2022-12-24T09:32:31;13.60;;;5.63;;
20928;SDS011;21895;47.072;15.132;2022-12-24T09:34:58;7.97;;;4.30;;
20928;SDS011;21895;47.072;15.132;2022-12-24T09:37:25;9.97;;;4.20;;
20928;SDS011;21895;47.072;15.132;2022-12-24T09:39:51;9.93;;;4.73;;
20928;SDS011;21895;47.072;15.132;2022-12-24T09:45:44;8.30;;;4.03;;
20928;SDS011;21895;47.072;15.132;2022-12-24T09:49:05;10.27;;;4.97;;
20928;SDS011;21895;47.072;15.132;2022-12-24T09:51:44;9.93;;;4.20;;
20928;SDS011;21895;47.072;15.132;2022-12-24T09:54:24;9.30;;;4.63;;
20928;SDS011;21895;47.072;15.132;2022-12-24T09:57:06;9.30;;;4.63;;
20928;SDS011;21895;47.072;15.132;2022-12-24T09:59:50;11.37;;;4.80;;
20928;SDS011;21895;47.072;15.132;2022-12-24T10:02:17;11.63;;;5.10;;
20928;SDS011;21895;47.072;15.132;2022-12-24T10:04:45;12.97;;;5.27;;
20928;SDS011;21895;47.072;15.132;2022-12-24T10:07:30;11.20;;;5.07;;
20928;SDS011;21895;47.072;15.132;2022-12-24T10:10:39;10.87;;;5.20;;
20928;SDS011;21895;47.072;15.132;2022-12-24T10:14:24;14.77;;;5.53;;
20928;SDS011;21895;47.072;15.132;2022-12-24T10:17:40;11.40;;;5.57;;
20928;SDS011;21895;47.072;15.132;2022-12-24T10:20:55;14.10;;;6.93;;
20928;SDS011;21895;47.072;15.132;2022-12-24T10:23:48;15.53;;;6.83;;
20928;SDS011;21895;47.072;15.132;2022-12-24T10:26:35;15.53;;;6.60;;
20928;SDS011;21895;47.072;15.132;2022-12-24T10:29:19;18.10;;;6.83;;
20928;SDS011;21895;47.072;15.132;2022-12-24T10:32:24;11.53;;;5.73;;
20928;SDS011;21895;47.072;15.132;2022-12-24T10:35:10;14.97;;;6.70;;
20928;SDS011;21895;47.072;15.132;2022-12-24T10:38:00;14.20;;;6.97;;
20928;SDS011;21895;47.072;15.132;2022-12-24T10:40:39;14.37;;;7.20;;
20928;SDS011;21895;47.072;15.132;2022-12-24T10:43:18;12.43;;;6.53;;
20928;SDS011;21895;47.072;15.132;2022-12-24T10:45:50;14.43;;;6.33;;
20928;SDS011;21895;47.072;15.132;2022-12-24T10:48:39;11.70;;;6.10;;
20928;SDS011;21895;47.072;15.132;2022-12-24T10:51:19;9.40;;;3.33;;
20928;SDS011;21895;47.072;15.132;2022-12-24T10:54:04;3.20;;;1.90;;
20928;SDS011;21895;47.072;15.132;2022-12-24T10:56:58;2.23;;;1.33;;
20928;SDS011;21895;47.072;15.132;2022-12-24T10:59:28;3.30;;;1.73;;
20928;SDS011;21895;47.072;15.132;2022-12-24T11:02:28;0.50;;;0.30;;
20928;SDS011;21895;47.072;15.132;2022-12-24T11:04:59;3.23;;;0.80;;
20928;SDS011;21895;47.072;15.132;2022-12-24T11:07:30;0.83;;;0.43;;
20928;SDS011;21895;47.072;15.132;2022-12-24T11:09:59;0.57;;;0.30;;
20928;SDS011;21895;47.072;15.132;2022-12-24T11:12:45;3.70;;;0.90;;
20928;SDS011;21895;47.072;15.132;2022-12-24T11:19:37;2.23;;;0.83;;
20928;SDS011;21895;47.072;15.132;2022-12-24T11:22:16;2.17;;;0.67;;
20928;SDS011;21895;47.072;15.132;2022-12-24T11:25:00;1.13;;;0.60;;
20928;SDS011;21895;47.072;15.132;2022-12-24T11:27:41;0.80;;;0.50;;
20928;SDS011;21895;47.072;15.132;2022-12-24T11:33:14;1.23;;;0.60;;
20928;SDS011;21895;47.072;15.132;2022-12-24T11:35:50;0.60;;;0.40;;
20928;SDS011;21895;47.072;15.132;2022-12-24T11:38:26;1.30;;;0.40;;
20928;SDS011;21895;47.072;15.132;2022-12-24T11:40:57;0.57;;;0.40;;
20928;SDS011;21895;47.072;15.132;2022-12-24T11:43:33;1.10;;;0.35;;
20928;SDS011;21895;47.072;15.132;2022-12-24T11:46:20;1.70;;;0.40;;
20928;SDS011;21895;47.072;15.132;2022-12-24T11:49:47;0.47;;;0.40;;
20928;SDS011;21895;47.072;15.132;2022-12-24T11:52:21;2.05;;;0.85;;
20928;SDS011;21895;47.072;15.132;2022-12-24T11:55:04;0.40;;;0.30;;
20928;SDS011;21895;47.072;15.132;2022-12-24T12:03:46;2.30;;;0.90;;
20928;SDS011;21895;47.072;15.132;2022-12-24T12:09:36;1.47;;;0.80;;
20928;SDS011;21895;47.072;15.132;2022-12-24T12:12:13;0.50;;;0.50;;
20928;SDS011;21895;47.072;15.132;2022-12-24T12:14:47;4.73;;;0.73;;
20928;SDS011;21895;47.072;15.132;2022-12-24T12:18:08;1.98;;;0.70;;
20928;SDS011;21895;47.072;15.132;2022-12-24T12:20:44;4.30;;;1.10;;
20928;SDS011;21895;47.072;15.132;2022-12-24T12:26:41;1.80;;;1.10;;
20928;SDS011;21895;47.072;15.132;2022-12-24T12:29:15;0.83;;;0.50;;
20928;SDS011;21895;47.072;15.132;2022-12-24T12:32:03;0.47;;;0.40;;
20928;SDS011;21895;47.072;15.132;2022-12-24T12:34:47;3.20;;;1.40;;
20928;SDS011;21895;47.072;15.132;2022-12-24T12:37:40;3.10;;;1.17;;
20928;SDS011;21895;47.072;15.132;2022-12-24T12:40:19;1.77;;;0.50;;
20928;SDS011;21895;47.072;15.132;2022-12-24T12:48:40;1.52;;;0.50;;
20928;SDS011;21895;47.072;15.132;2022-12-24T12:59:27;6.93;;;0.65;;
20928;SDS011;21895;47.072;15.132;2022-12-24T13:02:42;1.10;;;0.50;;
20928;SDS011;21895;47.072;15.132;2022-12-24T13:11:38;3.20;;;1.03;;
20928;SDS011;21895;47.072;15.132;2022-12-24T13:20:28;1.40;;;0.50;;
20928;SDS011;21895;47.072;15.132;2022-12-24T13:23:20;0.50;;;0.40;;
20928;SDS011;21895;47.072;15.132;2022-12-24T13:25:51;4.90;;;0.60;;
20928;SDS011;21895;47.072;15.132;2022-12-24T13:28:31;2.03;;;0.95;;
20928;SDS011;21895;47.072;15.132;2022-12-24T13:31:22;2.43;;;0.63;;
20928;SDS011;21895;47.072;15.132;2022-12-24T13:33:54;5.37;;;2.33;;
20928;SDS011;21895;47.072;15.132;2022-12-24T13:36:24;4.43;;;2.00;;
20928;SDS011;21895;47.072;15.132;2022-12-24T13:39:26;1.73;;;1.10;;
20928;SDS011;21895;47.072;15.132;2022-12-24T13:41:52;3.83;;;1.10;;
20928;SDS011;21895;47.072;15.132;2022-12-24T13:44:21;1.37;;;0.83;;
20928;SDS011;21895;47.072;15.132;2022-12-24T13:46:49;5.10;;;1.40;;
20928;SDS011;21895;47.072;15.132;2022-12-24T13:49:49;3.17;;;1.47;;
20928;SDS011;21895;47.072;15.132;2022-12-24T13:52:20;2.60;;;1.00;;
20928;SDS011;21895;47.072;15.132;2022-12-24T13:55:02;1.27;;;0.60;;
20928;SDS011;21895;47.072;15.132;2022-12-24T13:57:51;1.70;;;0.60;;
20928;SDS011;21895;47.072;15.132;2022-12-24T14:00:24;2.13;;;1.07;;
20928;SDS011;21895;47.072;15.132;2022-12-24T14:03:04;5.40;;;1.20;;
20928;SDS011;21895;47.072;15.132;2022-12-24T14:06:56;3.43;;;1.23;;
20928;SDS011;21895;47.072;15.132;2022-12-24T14:09:27;4.17;;;1.90;;
20928;SDS011;21895;47.072;15.132;2022-12-24T14:12:27;1.80;;;1.23;;
20928;SDS011;21895;47.072;15.132;2022-12-24T14:20:17;3.50;;;1.70;;
20928;SDS011;21895;47.072;15.132;2022-12-24T14:22:44;3.20;;;1.90;;
20928;SDS011;21895;47.072;15.132;2022-12-24T14:25:19;1.17;;;0.80;;
20928;SDS011;21895;47.072;15.132;2022-12-24T14:27:52;3.57;;;1.20;;
20928;SDS011;21895;47.072;15.132;2022-12-24T14:30:28;3.27;;;1.10;;
20928;SDS011;21895;47.072;15.132;2022-12-24T14:32:56;1.70;;;1.10;;
20928;SDS011;21895;47.072;15.132;2022-12-24T14:35:23;7.07;;;2.33;;
20928;SDS011;21895;47.072;15.132;2022-12-24T14:38:01;6.37;;;1.73;;
20928;SDS011;21895;47.072;15.132;2022-12-24T14:40:37;7.03;;;2.03;;
20928;SDS011;21895;47.072;15.132;2022-12-24T14:43:49;9.00;;;3.20;;
20928;SDS011;21895;47.072;15.132;2022-12-24T14:49:42;9.30;;;4.20;;
20928;SDS011;21895;47.072;15.132;2022-12-24T14:52:54;12.53;;;5.73;;
20928;SDS011;21895;47.072;15.132;2022-12-24T14:56:07;24.30;;;8.30;;
20928;SDS011;21895;47.072;15.132;2022-12-24T14:58:39;23.23;;;9.97;;
20928;SDS011;21895;47.072;15.132;2022-12-24T15:01:27;25.60;;;11.57;;
20928;SDS011;21895;47.072;15.132;2022-12-24T15:04:13;29.07;;;11.50;;
20928;SDS011;21895;47.072;15.132;2022-12-24T15:09:32;24.77;;;10.70;;
20928;SDS011;21895;47.072;15.132;2022-12-24T15:11:59;16.17;;;6.83;;
20928;SDS011;21895;47.072;15.132;2022-12-24T15:14:29;20.40;;;8.07;;
20928;SDS011;21895;47.072;15.132;2022-12-24T15:17:08;26.30;;;9.97;;
20928;SDS011;21895;47.072;15.132;2022-12-24T15:19:38;22.80;;;9.23;;
20928;SDS011;21895;47.072;15.132;2022-12-24T15:22:11;17.03;;;8.17;;
20928;SDS011;21895;47.072;15.132;2022-12-24T15:24:49;22.83;;;7.50;;
20928;SDS011;21895;47.072;15.132;2022-12-24T15:27:20;20.10;;;8.33;;
20928;SDS011;21895;47.072;15.132;2022-12-24T15:29:50;16.70;;;7.47;;
20928;SDS011;21895;47.072;15.132;2022-12-24T15:32:21;22.73;;;9.07;;
20928;SDS011;21895;47.072;15.132;2022-12-24T15:34:52;24.43;;;8.37;;
20928;SDS011;21895;47.072;15.132;2022-12-24T15:37:21;21.30;;;9.10;;
20928;SDS011;21895;47.072;15.132;2022-12-24T15:39:53;20.67;;;8.60;;
20928;SDS011;21895;47.072;15.132;2022-12-24T15:42:34;16.50;;;7.73;;
20928;SDS011;21895;47.072;15.132;2022-12-24T15:45:15;18.50;;;7.33;;
20928;SDS011;21895;47.072;15.132;2022-12-24T15:47:58;17.77;;;7.70;;
20928;SDS011;21895;47.072;15.132;2022-12-24T15:50:33;27.27;;;7.93;;
20928;SDS011;21895;47.072;15.132;2022-12-24T15:53:13;28.03;;;7.80;;
20928;SDS011;21895;47.072;15.132;2022-12-24T15:56:11;30.27;;;8.07;;
20928;SDS011;21895;47.072;15.132;2022-12-24T16:02:16;23.73;;;8.80;;
20928;SDS011;21895;47.072;15.132;2022-12-24T16:05:22;25.70;;;9.10;;
20928;SDS011;21895;47.072;15.132;2022-12-24T16:08:02;27.40;;;8.13;;
20928;SDS011;21895;47.072;15.132;2022-12-24T16:10:49;26.47;;;9.30;;
20928;SDS011;21895;47.072;15.132;2022-12-24T16:13:37;17.83;;;7.93;;
20928;SDS011;21895;47.072;15.132;2022-12-24T16:16:08;27.10;;;8.90;;
20928;SDS011;21895;47.072;15.132;2022-12-24T16:21:33;21.80;;;8.43;;
20928;SDS011;21895;47.072;15.132;2022-12-24T16:24:16;18.13;;;7.73;;
20928;SDS011;21895;47.072;15.132;2022-12-24T16:26:49;25.03;;;9.07;;
20928;SDS011;21895;47.072;15.132;2022-12-24T16:29:16;20.73;;;7.63;;
20928;SDS011;21895;47.072;15.132;2022-12-24T16:31:56;23.93;;;7.93;;
20928;SDS011;21895;47.072;15.132;2022-12-24T16:34:25;18.93;;;7.13;;
20928;SDS011;21895;47.072;15.132;2022-12-24T16:36:55;20.57;;;7.47;;
20928;SDS011;21895;47.072;15.132;2022-12-24T16:39:28;19.57;;;7.10;;
20928;SDS011;21895;47.072;15.132;2022-12-24T16:41:59;21.23;;;7.80;;
20928;SDS011;21895;47.072;15.132;2022-12-24T16:44:46;18.73;;;7.53;;
20928;SDS011;21895;47.072;15.132;2022-12-24T16:47:17;16.70;;;6.60;;
20928;SDS011;21895;47.072;15.132;2022-12-24T16:49:55;23.53;;;7.73;;
20928;SDS011;21895;47.072;15.132;2022-12-24T16:52:27;18.33;;;6.17;;